sensor_id;sensor_type;location;lat;lon;timestamp;P1;durP1;ratioP1;P2;durP2;ratioP2
69569;SDS011;56781;42.292;23.146;2023-06-14T00:01:03;6.90;;;2.92;;
69569;SDS011;56781;42.292;23.146;2023-06-14T00:03:32;6.43;;;3.10;;
69569;SDS011;56781;42.292;23.146;2023-06-14T00:05:59;6.65;;;3.13;;
69569;SDS011;56781;42.292;23.146;2023-06-14T00:08:27;6.47;;;2.75;;
69569;SDS011;56781;42.292;23.146;2023-06-14T00:10:54;6.85;;;3.03;;
69569;SDS011;56781;42.292;23.146;2023-06-14T00:13:21;5.78;;;2.80;;
69569;SDS011;56781;42.292;23.146;2023-06-14T00:15:48;6.43;;;3.25;;
69569;SDS011;56781;42.292;23.146;2023-06-14T00:18:15;6.03;;;2.60;;
69569;SDS011;56781;42.292;23.146;2023-06-14T00:20:43;7.57;;;3.03;;
69569;SDS011;56781;42.292;23.146;2023-06-14T00:23:10;6.25;;;3.00;;
69569;SDS011;56781;42.292;23.146;2023-06-14T00:25:37;7.85;;;3.13;;
69569;SDS011;56781;42.292;23.146;2023-06-14T00:28:05;8.00;;;2.78;;
69569;SDS011;56781;42.292;23.146;2023-06-14T00:30:32;6.93;;;3.00;;
69569;SDS011;56781;42.292;23.146;2023-06-14T00:32:59;8.07;;;3.03;;
69569;SDS011;56781;42.292;23.146;2023-06-14T00:35:27;10.10;;;3.20;;
69569;SDS011;56781;42.292;23.146;2023-06-14T00:37:54;9.20;;;3.35;;
69569;SDS011;56781;42.292;23.146;2023-06-14T00:40:21;7.55;;;3.47;;
69569;SDS011;56781;42.292;23.146;2023-06-14T00:42:49;6.75;;;3.20;;
69569;SDS011;56781;42.292;23.146;2023-06-14T00:45:16;8.85;;;3.47;;
69569;SDS011;56781;42.292;23.146;2023-06-14T00:47:43;7.72;;;3.03;;
69569;SDS011;56781;42.292;23.146;2023-06-14T00:50:12;7.47;;;3.58;;
69569;SDS011;56781;42.292;23.146;2023-06-14T00:52:39;6.25;;;3.28;;
69569;SDS011;56781;42.292;23.146;2023-06-14T00:55:07;5.55;;;3.40;;
69569;SDS011;56781;42.292;23.146;2023-06-14T00:57:34;6.93;;;3.33;;
69569;SDS011;56781;42.292;23.146;2023-06-14T01:00:04;8.68;;;3.55;;
69569;SDS011;56781;42.292;23.146;2023-06-14T01:02:36;8.13;;;3.33;;
69569;SDS011;56781;42.292;23.146;2023-06-14T01:05:04;7.20;;;3.45;;
69569;SDS011;56781;42.292;23.146;2023-06-14T01:07:38;8.48;;;4.00;;
69569;SDS011;56781;42.292;23.146;2023-06-14T01:12:44;9.05;;;3.58;;
69569;SDS011;56781;42.292;23.146;2023-06-14T01:15:26;8.70;;;3.70;;
69569;SDS011;56781;42.292;23.146;2023-06-14T01:17:56;7.53;;;3.78;;
69569;SDS011;56781;42.292;23.146;2023-06-14T01:20:30;9.70;;;3.90;;
69569;SDS011;56781;42.292;23.146;2023-06-14T01:22:59;7.85;;;3.92;;
69569;SDS011;56781;42.292;23.146;2023-06-14T01:25:26;6.97;;;3.88;;
69569;SDS011;56781;42.292;23.146;2023-06-14T01:28:02;8.73;;;4.20;;
69569;SDS011;56781;42.292;23.146;2023-06-14T01:30:38;11.90;;;4.15;;
69569;SDS011;56781;42.292;23.146;2023-06-14T01:33:15;11.20;;;4.20;;
69569;SDS011;56781;42.292;23.146;2023-06-14T01:35:47;9.75;;;4.38;;
69569;SDS011;56781;42.292;23.146;2023-06-14T01:38:21;12.43;;;4.70;;
69569;SDS011;56781;42.292;23.146;2023-06-14T01:40:51;10.68;;;5.00;;
69569;SDS011;56781;42.292;23.146;2023-06-14T01:43:21;11.27;;;5.47;;
69569;SDS011;56781;42.292;23.146;2023-06-14T01:45:50;13.73;;;5.75;;
69569;SDS011;56781;42.292;23.146;2023-06-14T01:48:18;13.30;;;5.40;;
69569;SDS011;56781;42.292;23.146;2023-06-14T01:50:47;12.55;;;5.85;;
69569;SDS011;56781;42.292;23.146;2023-06-14T01:53:16;12.05;;;5.22;;
69569;SDS011;56781;42.292;23.146;2023-06-14T01:55:43;13.80;;;6.30;;
69569;SDS011;56781;42.292;23.146;2023-06-14T01:58:11;13.25;;;5.93;;
69569;SDS011;56781;42.292;23.146;2023-06-14T02:00:38;11.25;;;6.03;;
69569;SDS011;56781;42.292;23.146;2023-06-14T02:03:05;11.65;;;5.38;;
69569;SDS011;56781;42.292;23.146;2023-06-14T02:05:32;15.52;;;5.95;;
69569;SDS011;56781;42.292;23.146;2023-06-14T02:08:01;14.05;;;6.38;;
69569;SDS011;56781;42.292;23.146;2023-06-14T02:10:29;12.55;;;5.63;;
69569;SDS011;56781;42.292;23.146;2023-06-14T02:12:56;11.55;;;5.10;;
69569;SDS011;56781;42.292;23.146;2023-06-14T02:15:23;12.18;;;5.10;;
69569;SDS011;56781;42.292;23.146;2023-06-14T02:17:50;8.80;;;4.22;;
69569;SDS011;56781;42.292;23.146;2023-06-14T02:20:18;10.27;;;4.25;;
69569;SDS011;56781;42.292;23.146;2023-06-14T02:22:45;12.83;;;4.30;;
69569;SDS011;56781;42.292;23.146;2023-06-14T02:25:12;8.65;;;4.05;;
69569;SDS011;56781;42.292;23.146;2023-06-14T02:27:39;11.55;;;3.95;;
69569;SDS011;56781;42.292;23.146;2023-06-14T02:30:07;6.82;;;3.88;;
69569;SDS011;56781;42.292;23.146;2023-06-14T02:32:34;11.63;;;3.80;;
69569;SDS011;56781;42.292;23.146;2023-06-14T02:35:02;10.82;;;4.10;;
69569;SDS011;56781;42.292;23.146;2023-06-14T02:37:30;10.18;;;4.50;;
69569;SDS011;56781;42.292;23.146;2023-06-14T02:39:58;12.55;;;4.60;;
69569;SDS011;56781;42.292;23.146;2023-06-14T02:42:25;8.52;;;4.45;;
69569;SDS011;56781;42.292;23.146;2023-06-14T02:44:53;11.45;;;5.35;;
69569;SDS011;56781;42.292;23.146;2023-06-14T02:47:20;10.47;;;5.10;;
69569;SDS011;56781;42.292;23.146;2023-06-14T02:49:47;10.75;;;5.35;;
69569;SDS011;56781;42.292;23.146;2023-06-14T02:52:14;12.32;;;6.43;;
69569;SDS011;56781;42.292;23.146;2023-06-14T02:54:42;10.68;;;5.38;;
69569;SDS011;56781;42.292;23.146;2023-06-14T02:57:09;11.10;;;5.30;;
69569;SDS011;56781;42.292;23.146;2023-06-14T02:59:37;10.00;;;4.97;;
69569;SDS011;56781;42.292;23.146;2023-06-14T03:02:04;12.88;;;4.80;;
69569;SDS011;56781;42.292;23.146;2023-06-14T03:04:32;9.60;;;4.72;;
69569;SDS011;56781;42.292;23.146;2023-06-14T03:07:04;10.43;;;4.43;;
69569;SDS011;56781;42.292;23.146;2023-06-14T03:09:39;11.63;;;4.82;;
69569;SDS011;56781;42.292;23.146;2023-06-14T03:12:06;14.00;;;4.95;;
69569;SDS011;56781;42.292;23.146;2023-06-14T03:14:34;12.32;;;4.78;;
69569;SDS011;56781;42.292;23.146;2023-06-14T03:17:02;9.52;;;4.72;;
69569;SDS011;56781;42.292;23.146;2023-06-14T03:19:31;9.75;;;4.30;;
69569;SDS011;56781;42.292;23.146;2023-06-14T03:21:58;8.45;;;4.15;;
69569;SDS011;56781;42.292;23.146;2023-06-14T03:24:26;12.03;;;4.50;;
69569;SDS011;56781;42.292;23.146;2023-06-14T03:26:55;7.22;;;3.92;;
69569;SDS011;56781;42.292;23.146;2023-06-14T03:29:23;10.43;;;5.03;;
69569;SDS011;56781;42.292;23.146;2023-06-14T03:31:57;11.90;;;4.20;;
69569;SDS011;56781;42.292;23.146;2023-06-14T03:34:28;9.77;;;4.57;;
69569;SDS011;56781;42.292;23.146;2023-06-14T03:36:55;9.63;;;4.43;;
69569;SDS011;56781;42.292;23.146;2023-06-14T03:39:23;9.80;;;4.43;;
69569;SDS011;56781;42.292;23.146;2023-06-14T03:41:50;9.18;;;4.43;;
69569;SDS011;56781;42.292;23.146;2023-06-14T03:44:17;8.80;;;4.47;;
69569;SDS011;56781;42.292;23.146;2023-06-14T03:46:45;9.30;;;4.40;;
69569;SDS011;56781;42.292;23.146;2023-06-14T03:49:13;9.63;;;4.90;;
69569;SDS011;56781;42.292;23.146;2023-06-14T03:51:40;8.68;;;4.50;;
69569;SDS011;56781;42.292;23.146;2023-06-14T03:54:07;10.98;;;5.15;;
69569;SDS011;56781;42.292;23.146;2023-06-14T03:56:37;7.93;;;4.45;;
69569;SDS011;56781;42.292;23.146;2023-06-14T03:59:05;8.77;;;5.35;;
69569;SDS011;56781;42.292;23.146;2023-06-14T04:01:32;10.68;;;4.93;;
69569;SDS011;56781;42.292;23.146;2023-06-14T04:04:00;8.00;;;4.47;;
69569;SDS011;56781;42.292;23.146;2023-06-14T04:06:27;9.27;;;4.70;;
69569;SDS011;56781;42.292;23.146;2023-06-14T04:08:59;8.10;;;4.68;;
69569;SDS011;56781;42.292;23.146;2023-06-14T04:11:31;9.20;;;4.35;;
69569;SDS011;56781;42.292;23.146;2023-06-14T04:13:58;13.63;;;4.93;;
69569;SDS011;56781;42.292;23.146;2023-06-14T04:16:25;11.88;;;6.28;;
69569;SDS011;56781;42.292;23.146;2023-06-14T04:18:54;13.25;;;6.22;;
69569;SDS011;56781;42.292;23.146;2023-06-14T04:21:22;12.13;;;5.50;;
69569;SDS011;56781;42.292;23.146;2023-06-14T04:23:49;14.18;;;5.75;;
69569;SDS011;56781;42.292;23.146;2023-06-14T04:26:19;8.93;;;4.60;;
69569;SDS011;56781;42.292;23.146;2023-06-14T04:28:49;9.15;;;4.85;;
69569;SDS011;56781;42.292;23.146;2023-06-14T04:31:17;10.50;;;4.50;;
69569;SDS011;56781;42.292;23.146;2023-06-14T04:33:44;9.85;;;4.30;;
69569;SDS011;56781;42.292;23.146;2023-06-14T04:36:13;11.30;;;4.43;;
69569;SDS011;56781;42.292;23.146;2023-06-14T04:38:44;8.05;;;4.10;;
69569;SDS011;56781;42.292;23.146;2023-06-14T04:41:12;8.15;;;3.80;;
69569;SDS011;56781;42.292;23.146;2023-06-14T04:43:40;9.95;;;4.40;;
69569;SDS011;56781;42.292;23.146;2023-06-14T04:46:07;8.18;;;4.30;;
69569;SDS011;56781;42.292;23.146;2023-06-14T04:48:38;7.75;;;4.15;;
69569;SDS011;56781;42.292;23.146;2023-06-14T04:51:07;7.63;;;4.57;;
69569;SDS011;56781;42.292;23.146;2023-06-14T04:53:35;9.88;;;4.80;;
69569;SDS011;56781;42.292;23.146;2023-06-14T04:56:03;7.50;;;4.57;;
69569;SDS011;56781;42.292;23.146;2023-06-14T04:58:31;8.63;;;5.05;;
69569;SDS011;56781;42.292;23.146;2023-06-14T05:00:59;9.65;;;5.55;;
69569;SDS011;56781;42.292;23.146;2023-06-14T05:03:28;9.18;;;5.22;;
69569;SDS011;56781;42.292;23.146;2023-06-14T05:05:57;9.63;;;5.32;;
69569;SDS011;56781;42.292;23.146;2023-06-14T05:08:24;9.77;;;5.50;;
69569;SDS011;56781;42.292;23.146;2023-06-14T05:10:52;8.50;;;5.07;;
69569;SDS011;56781;42.292;23.146;2023-06-14T05:13:19;9.43;;;5.30;;
69569;SDS011;56781;42.292;23.146;2023-06-14T05:15:48;8.77;;;5.20;;
69569;SDS011;56781;42.292;23.146;2023-06-14T05:18:15;9.38;;;5.30;;
69569;SDS011;56781;42.292;23.146;2023-06-14T05:20:43;8.10;;;5.00;;
69569;SDS011;56781;42.292;23.146;2023-06-14T05:23:10;9.70;;;5.10;;
69569;SDS011;56781;42.292;23.146;2023-06-14T05:25:45;10.70;;;5.50;;
69569;SDS011;56781;42.292;23.146;2023-06-14T05:28:13;9.52;;;5.70;;
69569;SDS011;56781;42.292;23.146;2023-06-14T05:30:40;18.58;;;6.22;;
69569;SDS011;56781;42.292;23.146;2023-06-14T05:33:07;11.40;;;5.85;;
69569;SDS011;56781;42.292;23.146;2023-06-14T05:35:35;11.18;;;6.43;;
69569;SDS011;56781;42.292;23.146;2023-06-14T05:38:02;12.85;;;6.28;;
69569;SDS011;56781;42.292;23.146;2023-06-14T05:40:29;12.07;;;7.07;;
69569;SDS011;56781;42.292;23.146;2023-06-14T05:42:56;13.65;;;7.32;;
69569;SDS011;56781;42.292;23.146;2023-06-14T05:45:23;14.10;;;7.00;;
69569;SDS011;56781;42.292;23.146;2023-06-14T05:47:50;13.75;;;7.00;;
69569;SDS011;56781;42.292;23.146;2023-06-14T05:50:18;13.00;;;7.55;;
69569;SDS011;56781;42.292;23.146;2023-06-14T05:52:46;15.75;;;7.47;;
69569;SDS011;56781;42.292;23.146;2023-06-14T05:55:13;15.00;;;7.35;;
69569;SDS011;56781;42.292;23.146;2023-06-14T05:57:40;13.45;;;7.40;;
69569;SDS011;56781;42.292;23.146;2023-06-14T06:00:08;14.30;;;7.45;;
69569;SDS011;56781;42.292;23.146;2023-06-14T06:02:42;14.35;;;6.90;;
69569;SDS011;56781;42.292;23.146;2023-06-14T06:05:10;12.32;;;7.28;;
69569;SDS011;56781;42.292;23.146;2023-06-14T06:07:42;12.23;;;7.03;;
69569;SDS011;56781;42.292;23.146;2023-06-14T06:10:12;13.45;;;7.00;;
69569;SDS011;56781;42.292;23.146;2023-06-14T06:12:40;12.23;;;7.30;;
69569;SDS011;56781;42.292;23.146;2023-06-14T06:15:08;14.05;;;7.10;;
69569;SDS011;56781;42.292;23.146;2023-06-14T06:17:39;11.02;;;6.90;;
69569;SDS011;56781;42.292;23.146;2023-06-14T06:20:21;10.75;;;6.68;;
69569;SDS011;56781;42.292;23.146;2023-06-14T06:22:55;14.30;;;6.82;;
69569;SDS011;56781;42.292;23.146;2023-06-14T06:25:23;12.45;;;6.95;;
69569;SDS011;56781;42.292;23.146;2023-06-14T06:27:53;13.43;;;7.15;;
69569;SDS011;56781;42.292;23.146;2023-06-14T06:30:21;10.63;;;6.93;;
69569;SDS011;56781;42.292;23.146;2023-06-14T06:32:48;10.82;;;6.63;;
69569;SDS011;56781;42.292;23.146;2023-06-14T06:35:15;11.05;;;6.63;;
69569;SDS011;56781;42.292;23.146;2023-06-14T06:37:43;10.50;;;6.95;;
69569;SDS011;56781;42.292;23.146;2023-06-14T06:40:11;16.80;;;8.05;;
69569;SDS011;56781;42.292;23.146;2023-06-14T06:42:39;11.30;;;7.20;;
69569;SDS011;56781;42.292;23.146;2023-06-14T06:45:06;18.35;;;7.13;;
69569;SDS011;56781;42.292;23.146;2023-06-14T06:47:33;17.75;;;7.63;;
69569;SDS011;56781;42.292;23.146;2023-06-14T06:50:00;40.42;;;15.30;;
69569;SDS011;56781;42.292;23.146;2023-06-14T06:52:28;25.35;;;8.27;;
69569;SDS011;56781;42.292;23.146;2023-06-14T06:54:55;12.90;;;7.53;;
69569;SDS011;56781;42.292;23.146;2023-06-14T06:57:23;17.73;;;7.90;;
69569;SDS011;56781;42.292;23.146;2023-06-14T06:59:50;11.85;;;7.40;;
69569;SDS011;56781;42.292;23.146;2023-06-14T07:02:17;16.08;;;7.82;;
69569;SDS011;56781;42.292;23.146;2023-06-14T07:04:45;16.55;;;7.07;;
69569;SDS011;56781;42.292;23.146;2023-06-14T07:07:12;11.98;;;7.50;;
69569;SDS011;56781;42.292;23.146;2023-06-14T07:09:39;15.18;;;7.60;;
69569;SDS011;56781;42.292;23.146;2023-06-14T07:12:08;12.35;;;7.35;;
69569;SDS011;56781;42.292;23.146;2023-06-14T07:14:37;12.13;;;7.28;;
69569;SDS011;56781;42.292;23.146;2023-06-14T07:17:04;13.95;;;7.43;;
69569;SDS011;56781;42.292;23.146;2023-06-14T07:19:31;14.77;;;7.93;;
69569;SDS011;56781;42.292;23.146;2023-06-14T07:21:59;16.63;;;7.68;;
69569;SDS011;56781;42.292;23.146;2023-06-14T07:24:26;12.00;;;7.90;;
69569;SDS011;56781;42.292;23.146;2023-06-14T07:26:55;15.77;;;7.68;;
69569;SDS011;56781;42.292;23.146;2023-06-14T07:29:22;15.25;;;8.38;;
69569;SDS011;56781;42.292;23.146;2023-06-14T07:31:49;12.45;;;7.75;;
69569;SDS011;56781;42.292;23.146;2023-06-14T07:34:17;14.63;;;8.13;;
69569;SDS011;56781;42.292;23.146;2023-06-14T07:36:44;16.35;;;8.45;;
69569;SDS011;56781;42.292;23.146;2023-06-14T07:39:11;16.23;;;7.97;;
69569;SDS011;56781;42.292;23.146;2023-06-14T07:41:38;16.55;;;9.02;;
69569;SDS011;56781;42.292;23.146;2023-06-14T07:44:06;13.40;;;8.18;;
69569;SDS011;56781;42.292;23.146;2023-06-14T07:46:33;15.63;;;8.55;;
69569;SDS011;56781;42.292;23.146;2023-06-14T07:49:01;13.85;;;8.40;;
69569;SDS011;56781;42.292;23.146;2023-06-14T07:51:28;13.30;;;8.70;;
69569;SDS011;56781;42.292;23.146;2023-06-14T07:53:55;13.68;;;8.63;;
69569;SDS011;56781;42.292;23.146;2023-06-14T07:56:22;14.23;;;8.50;;
69569;SDS011;56781;42.292;23.146;2023-06-14T07:58:49;14.00;;;8.57;;
69569;SDS011;56781;42.292;23.146;2023-06-14T08:01:16;15.82;;;8.93;;
69569;SDS011;56781;42.292;23.146;2023-06-14T08:03:44;15.63;;;8.60;;
69569;SDS011;56781;42.292;23.146;2023-06-14T08:06:11;13.90;;;8.15;;
69569;SDS011;56781;42.292;23.146;2023-06-14T08:08:38;13.30;;;8.90;;
69569;SDS011;56781;42.292;23.146;2023-06-14T08:11:05;14.75;;;8.70;;
69569;SDS011;56781;42.292;23.146;2023-06-14T08:13:33;16.83;;;9.02;;
69569;SDS011;56781;42.292;23.146;2023-06-14T08:16:00;13.02;;;8.57;;
69569;SDS011;56781;42.292;23.146;2023-06-14T08:18:27;14.00;;;9.48;;
69569;SDS011;56781;42.292;23.146;2023-06-14T08:20:56;13.68;;;9.00;;
69569;SDS011;56781;42.292;23.146;2023-06-14T08:23:24;16.02;;;8.88;;
69569;SDS011;56781;42.292;23.146;2023-06-14T08:25:51;14.50;;;8.95;;
69569;SDS011;56781;42.292;23.146;2023-06-14T08:28:18;15.55;;;9.57;;
69569;SDS011;56781;42.292;23.146;2023-06-14T08:30:45;18.52;;;10.13;;
69569;SDS011;56781;42.292;23.146;2023-06-14T08:33:12;16.23;;;8.93;;
69569;SDS011;56781;42.292;23.146;2023-06-14T08:35:42;16.25;;;9.32;;
69569;SDS011;56781;42.292;23.146;2023-06-14T08:38:10;13.82;;;9.32;;
69569;SDS011;56781;42.292;23.146;2023-06-14T08:40:38;15.20;;;9.20;;
69569;SDS011;56781;42.292;23.146;2023-06-14T08:43:08;15.10;;;9.77;;
69569;SDS011;56781;42.292;23.146;2023-06-14T08:45:36;14.63;;;9.32;;
69569;SDS011;56781;42.292;23.146;2023-06-14T08:48:03;14.88;;;8.60;;
69569;SDS011;56781;42.292;23.146;2023-06-14T08:50:32;13.65;;;8.93;;
69569;SDS011;56781;42.292;23.146;2023-06-14T08:53:01;12.15;;;9.10;;
69569;SDS011;56781;42.292;23.146;2023-06-14T08:55:31;12.40;;;9.05;;
69569;SDS011;56781;42.292;23.146;2023-06-14T08:58:03;14.35;;;9.15;;
69569;SDS011;56781;42.292;23.146;2023-06-14T09:00:31;12.75;;;9.10;;
69569;SDS011;56781;42.292;23.146;2023-06-14T09:03:00;14.07;;;10.02;;
69569;SDS011;56781;42.292;23.146;2023-06-14T09:05:27;13.20;;;8.77;;
69569;SDS011;56781;42.292;23.146;2023-06-14T09:07:55;14.18;;;9.15;;
69569;SDS011;56781;42.292;23.146;2023-06-14T09:10:32;13.00;;;8.52;;
69569;SDS011;56781;42.292;23.146;2023-06-14T09:13:04;14.05;;;9.88;;
69569;SDS011;56781;42.292;23.146;2023-06-14T09:15:32;13.77;;;9.27;;
69569;SDS011;56781;42.292;23.146;2023-06-14T09:18:01;11.95;;;7.85;;
69569;SDS011;56781;42.292;23.146;2023-06-14T09:20:30;12.38;;;8.30;;
69569;SDS011;56781;42.292;23.146;2023-06-14T09:22:58;10.63;;;7.72;;
69569;SDS011;56781;42.292;23.146;2023-06-14T09:25:25;10.88;;;7.65;;
69569;SDS011;56781;42.292;23.146;2023-06-14T09:28:08;14.13;;;8.40;;
69569;SDS011;56781;42.292;23.146;2023-06-14T09:30:36;9.48;;;7.25;;
69569;SDS011;56781;42.292;23.146;2023-06-14T09:33:06;11.75;;;7.80;;
69569;SDS011;56781;42.292;23.146;2023-06-14T09:35:34;10.60;;;7.80;;
69569;SDS011;56781;42.292;23.146;2023-06-14T09:38:01;14.80;;;7.75;;
69569;SDS011;56781;42.292;23.146;2023-06-14T09:40:28;10.13;;;7.18;;
69569;SDS011;56781;42.292;23.146;2023-06-14T09:43:00;11.98;;;7.53;;
69569;SDS011;56781;42.292;23.146;2023-06-14T09:45:30;11.07;;;6.22;;
69569;SDS011;56781;42.292;23.146;2023-06-14T09:47:58;14.00;;;7.78;;
69569;SDS011;56781;42.292;23.146;2023-06-14T09:50:27;11.55;;;7.50;;
69569;SDS011;56781;42.292;23.146;2023-06-14T09:52:55;13.52;;;8.20;;
69569;SDS011;56781;42.292;23.146;2023-06-14T09:55:29;11.35;;;7.40;;
69569;SDS011;56781;42.292;23.146;2023-06-14T09:57:57;9.85;;;7.18;;
69569;SDS011;56781;42.292;23.146;2023-06-14T10:00:27;10.38;;;6.88;;
69569;SDS011;56781;42.292;23.146;2023-06-14T10:02:59;10.60;;;7.05;;
69569;SDS011;56781;42.292;23.146;2023-06-14T10:05:33;11.85;;;7.07;;
69569;SDS011;56781;42.292;23.146;2023-06-14T10:08:10;10.13;;;7.22;;
69569;SDS011;56781;42.292;23.146;2023-06-14T10:10:40;9.50;;;6.40;;
69569;SDS011;56781;42.292;23.146;2023-06-14T10:13:09;8.20;;;6.22;;
69569;SDS011;56781;42.292;23.146;2023-06-14T10:15:43;10.70;;;6.60;;
69569;SDS011;56781;42.292;23.146;2023-06-14T10:23:50;11.30;;;6.88;;
69569;SDS011;56781;42.292;23.146;2023-06-14T10:26:22;16.20;;;6.75;;
69569;SDS011;56781;42.292;23.146;2023-06-14T10:29:00;10.60;;;7.10;;
69569;SDS011;56781;42.292;23.146;2023-06-14T10:31:41;9.65;;;6.20;;
69569;SDS011;56781;42.292;23.146;2023-06-14T10:34:12;10.55;;;6.18;;
69569;SDS011;56781;42.292;23.146;2023-06-14T10:37:23;11.00;;;6.63;;
69569;SDS011;56781;42.292;23.146;2023-06-14T10:39:44;10.35;;;6.95;;
69569;SDS011;56781;42.292;23.146;2023-06-14T10:42:14;12.25;;;6.50;;
69569;SDS011;56781;42.292;23.146;2023-06-14T10:44:43;9.15;;;6.35;;
69569;SDS011;56781;42.292;23.146;2023-06-14T10:47:10;9.60;;;6.22;;
69569;SDS011;56781;42.292;23.146;2023-06-14T10:49:51;9.45;;;6.40;;
69569;SDS011;56781;42.292;23.146;2023-06-14T10:52:23;9.27;;;6.07;;
69569;SDS011;56781;42.292;23.146;2023-06-14T10:55:29;14.25;;;7.30;;
69569;SDS011;56781;42.292;23.146;2023-06-14T10:57:50;10.55;;;6.43;;
69569;SDS011;56781;42.292;23.146;2023-06-14T11:00:21;11.88;;;6.22;;
69569;SDS011;56781;42.292;23.146;2023-06-14T11:05:53;12.90;;;6.78;;
69569;SDS011;56781;42.292;23.146;2023-06-14T11:11:18;9.43;;;6.63;;
69569;SDS011;56781;42.292;23.146;2023-06-14T11:13:48;9.30;;;6.53;;
69569;SDS011;56781;42.292;23.146;2023-06-14T11:16:16;8.95;;;6.32;;
69569;SDS011;56781;42.292;23.146;2023-06-14T11:18:45;9.32;;;6.38;;
69569;SDS011;56781;42.292;23.146;2023-06-14T11:21:16;9.65;;;7.28;;
69569;SDS011;56781;42.292;23.146;2023-06-14T11:23:51;15.45;;;7.22;;
69569;SDS011;56781;42.292;23.146;2023-06-14T11:26:27;17.65;;;6.88;;
69569;SDS011;56781;42.292;23.146;2023-06-14T11:29:00;11.93;;;7.15;;
69569;SDS011;56781;42.292;23.146;2023-06-14T11:31:27;14.63;;;7.53;;
69569;SDS011;56781;42.292;23.146;2023-06-14T11:33:56;8.02;;;5.65;;
69569;SDS011;56781;42.292;23.146;2023-06-14T11:36:33;7.75;;;5.80;;
69569;SDS011;56781;42.292;23.146;2023-06-14T11:39:02;8.68;;;5.78;;
69569;SDS011;56781;42.292;23.146;2023-06-14T11:41:33;8.57;;;5.63;;
69569;SDS011;56781;42.292;23.146;2023-06-14T11:44:04;10.70;;;6.47;;
69569;SDS011;56781;42.292;23.146;2023-06-14T11:46:32;8.70;;;6.15;;
69569;SDS011;56781;42.292;23.146;2023-06-14T11:49:00;9.30;;;6.43;;
69569;SDS011;56781;42.292;23.146;2023-06-14T11:51:30;8.23;;;5.50;;
69569;SDS011;56781;42.292;23.146;2023-06-14T11:53:58;7.70;;;5.63;;
69569;SDS011;56781;42.292;23.146;2023-06-14T11:56:26;7.95;;;5.72;;
69569;SDS011;56781;42.292;23.146;2023-06-14T11:58:54;9.40;;;6.97;;
69569;SDS011;56781;42.292;23.146;2023-06-14T12:01:23;10.63;;;7.88;;
69569;SDS011;56781;42.292;23.146;2023-06-14T12:03:50;10.93;;;7.22;;
69569;SDS011;56781;42.292;23.146;2023-06-14T12:06:27;10.05;;;7.32;;
69569;SDS011;56781;42.292;23.146;2023-06-14T12:08:56;17.90;;;7.57;;
69569;SDS011;56781;42.292;23.146;2023-06-14T12:11:23;10.90;;;6.63;;
69569;SDS011;56781;42.292;23.146;2023-06-14T12:13:56;9.18;;;6.28;;
69569;SDS011;56781;42.292;23.146;2023-06-14T12:16:29;9.40;;;6.82;;
69569;SDS011;56781;42.292;23.146;2023-06-14T12:19:15;10.40;;;6.53;;
69569;SDS011;56781;42.292;23.146;2023-06-14T12:21:46;11.07;;;6.55;;
69569;SDS011;56781;42.292;23.146;2023-06-14T12:24:15;9.63;;;7.13;;
69569;SDS011;56781;42.292;23.146;2023-06-14T12:26:43;9.85;;;6.63;;
69569;SDS011;56781;42.292;23.146;2023-06-14T12:29:10;8.57;;;6.78;;
69569;SDS011;56781;42.292;23.146;2023-06-14T12:31:39;9.15;;;6.70;;
69569;SDS011;56781;42.292;23.146;2023-06-14T12:34:07;8.32;;;6.22;;
69569;SDS011;56781;42.292;23.146;2023-06-14T12:36:34;8.57;;;5.72;;
69569;SDS011;56781;42.292;23.146;2023-06-14T12:39:06;9.68;;;6.50;;
69569;SDS011;56781;42.292;23.146;2023-06-14T12:41:34;9.65;;;6.93;;
69569;SDS011;56781;42.292;23.146;2023-06-14T12:44:03;9.38;;;7.18;;
69569;SDS011;56781;42.292;23.146;2023-06-14T12:46:31;9.73;;;7.10;;
69569;SDS011;56781;42.292;23.146;2023-06-14T12:48:58;8.40;;;7.10;;
69569;SDS011;56781;42.292;23.146;2023-06-14T12:51:26;8.35;;;6.07;;
69569;SDS011;56781;42.292;23.146;2023-06-14T12:53:53;13.07;;;7.43;;
69569;SDS011;56781;42.292;23.146;2023-06-14T12:56:20;11.60;;;7.70;;
69569;SDS011;56781;42.292;23.146;2023-06-14T12:58:50;12.32;;;7.85;;
69569;SDS011;56781;42.292;23.146;2023-06-14T13:01:17;9.70;;;5.03;;
69569;SDS011;56781;42.292;23.146;2023-06-14T13:03:46;9.07;;;4.95;;
69569;SDS011;56781;42.292;23.146;2023-06-14T13:06:13;8.13;;;5.30;;
69569;SDS011;56781;42.292;23.146;2023-06-14T13:08:41;9.35;;;5.20;;
69569;SDS011;56781;42.292;23.146;2023-06-14T13:11:08;8.00;;;5.03;;
69569;SDS011;56781;42.292;23.146;2023-06-14T13:13:35;12.88;;;5.32;;
69569;SDS011;56781;42.292;23.146;2023-06-14T13:16:02;7.97;;;5.60;;
69569;SDS011;56781;42.292;23.146;2023-06-14T13:18:30;10.18;;;5.80;;
69569;SDS011;56781;42.292;23.146;2023-06-14T13:20:57;7.68;;;5.43;;
69569;SDS011;56781;42.292;23.146;2023-06-14T13:23:24;11.93;;;6.68;;
69569;SDS011;56781;42.292;23.146;2023-06-14T13:25:51;10.13;;;6.65;;
69569;SDS011;56781;42.292;23.146;2023-06-14T13:28:18;10.70;;;7.03;;
69569;SDS011;56781;42.292;23.146;2023-06-14T13:30:47;9.57;;;5.90;;
69569;SDS011;56781;42.292;23.146;2023-06-14T13:33:14;8.15;;;6.13;;
69569;SDS011;56781;42.292;23.146;2023-06-14T13:35:41;9.35;;;6.30;;
69569;SDS011;56781;42.292;23.146;2023-06-14T13:38:09;7.53;;;6.10;;
69569;SDS011;56781;42.292;23.146;2023-06-14T13:40:38;10.95;;;6.40;;
69569;SDS011;56781;42.292;23.146;2023-06-14T13:43:05;8.93;;;6.18;;
69569;SDS011;56781;42.292;23.146;2023-06-14T13:45:32;10.88;;;6.10;;
69569;SDS011;56781;42.292;23.146;2023-06-14T13:47:59;7.90;;;5.55;;
69569;SDS011;56781;42.292;23.146;2023-06-14T13:50:27;11.40;;;6.40;;
69569;SDS011;56781;42.292;23.146;2023-06-14T13:52:54;9.40;;;5.75;;
69569;SDS011;56781;42.292;23.146;2023-06-14T13:55:21;9.30;;;5.70;;
69569;SDS011;56781;42.292;23.146;2023-06-14T13:57:49;8.88;;;5.15;;
69569;SDS011;56781;42.292;23.146;2023-06-14T14:00:16;10.35;;;5.50;;
69569;SDS011;56781;42.292;23.146;2023-06-14T14:02:48;8.77;;;5.25;;
69569;SDS011;56781;42.292;23.146;2023-06-14T14:05:17;9.55;;;5.68;;
69569;SDS011;56781;42.292;23.146;2023-06-14T14:07:44;8.15;;;6.10;;
69569;SDS011;56781;42.292;23.146;2023-06-14T14:10:12;7.68;;;4.68;;
69569;SDS011;56781;42.292;23.146;2023-06-14T14:12:42;7.13;;;4.50;;
69569;SDS011;56781;42.292;23.146;2023-06-14T14:15:09;9.85;;;4.20;;
69569;SDS011;56781;42.292;23.146;2023-06-14T14:17:39;10.10;;;4.50;;
69569;SDS011;56781;42.292;23.146;2023-06-14T14:20:08;6.82;;;4.07;;
69569;SDS011;56781;42.292;23.146;2023-06-14T14:22:35;8.80;;;5.35;;
69569;SDS011;56781;42.292;23.146;2023-06-14T14:25:03;8.68;;;4.85;;
69569;SDS011;56781;42.292;23.146;2023-06-14T14:27:30;8.27;;;4.95;;
69569;SDS011;56781;42.292;23.146;2023-06-14T14:29:57;7.10;;;4.55;;
69569;SDS011;56781;42.292;23.146;2023-06-14T14:32:24;8.10;;;3.97;;
69569;SDS011;56781;42.292;23.146;2023-06-14T14:34:52;7.07;;;4.28;;
69569;SDS011;56781;42.292;23.146;2023-06-14T14:37:19;8.82;;;4.47;;
69569;SDS011;56781;42.292;23.146;2023-06-14T14:39:46;8.40;;;4.00;;
69569;SDS011;56781;42.292;23.146;2023-06-14T14:42:14;7.78;;;4.20;;
69569;SDS011;56781;42.292;23.146;2023-06-14T14:44:41;8.00;;;4.28;;
69569;SDS011;56781;42.292;23.146;2023-06-14T14:47:08;5.97;;;4.10;;
69569;SDS011;56781;42.292;23.146;2023-06-14T14:49:35;7.20;;;4.00;;